WMKM

Details ICAO WMKM (MKZ)
Name Malacca
Region Malaysia (Peninsular Malaysia)
Timezone Asia/Kuala_Lumpur (UTC+8.0)
Plans Departing 30
Arriving 50
Stats Elevation 35 ft / 11 m (AMSL)
Location 2.263360° 102.252000°
Runways 1
Magnetic Variation 0.070° E
Sunrise 2019-02-21 23:24:19 UTC / 2019-02-22 07:24:19 Local
Sunset 2019-02-22 11:27:46 UTC / 2019-02-22 19:27:46 Local
Advertisement - Login to hide

Runways

ID Width Length Bearing (true/mag) Surface Threshold Overrun Markings Lighting
03 121 ft / 37 m 4,523 ft / 1,379 m 29.93° / 29.86° ASPHALT 0 ft / 0 m 200 ft / 61 m APP EDGE THRESHOLD
21 121 ft / 37 m 4,523 ft / 1,379 m 209.93° / 209.86° ASPHALT 0 ft / 0 m 200 ft / 61 m APP EDGE THRESHOLD

Map

Weather


0- 5 10 15 20 25 30 35+ Temperature / °C

Clouds and Precipitation
Forecast for 2019-02-22 12:00 UTC. Updated 2 hours ago

Ground ~20,000 ft ~40,000 ft Winds

METAR

WMKM 221200Z VRB02KT 9999 FEW017CB BKN280 29/26 Q1009

TAF

Not found

Frequencies

Ground 121.60 MHz
Tower 118.00 MHz
Warning: Do not use this data for real-world aviation or navigation. No guarantee of current accuracy is given.